Weather at Georgetown-Scott County Regional Airport

Public forecast

Using degrees Fahrenheit for public forecast. Weather courtesy of forecast.io.

Current aviation weather report (METAR) for Georgetown-Scott County Regional Airport

2024/05/20 08:35 (retrieved 15 minutes ago)

K27K 200835Z AUTO 00000KT 10SM CLR 13/13 A2999 RMK AO1

Closest aviation forecast (TAF) to Georgetown-Scott County Regional Airport

Closest forecast is Blue Grass Airport, 14.4 nm (26.6 km) SW.

2024/05/20 06:22 (retrieved 2 hours ago)

TAF KLEX 200520Z 2006/2106 00000KT P6SM SKC FM201500 20005KT P6SM FEW050